| time (UTC) | temp F | wind direction | speed knots | gust knots | rain 1hr in | rain 24hr in | rain mn in | humidity % | barometer mb |
| 20260507184554 | 57 | 0.0 | 0.0 | 0.01 | 0.01 | 0.01 | 83 | 1012.2 | |
| 20260507183057 | 57 | 0.0 | 0.0 | 0.01 | 0.01 | 0.01 | 83 | 1012.0 | |
| 20260507181551 | 57 | 0.0 | 0.0 | 0.01 | 0.01 | 0.01 | 83 | 1011.9 | |
| 20260507180053 | 57 | 0.0 | 0.0 | 0.01 | 0.01 | 0.01 | 81 | 1012.0 | |
| 20260507174548 | 58 | 0.0 | 0.0 | 0.00 | 0.00 | 0.00 | 79 | 1011.9 | |
| 20260507173053 | 59 | 0.0 | 0.0 | 0.00 | 0.00 | 0.00 | 76 | 1011.8 | |
| 20260507171546 | 60 | 0.0 | 0.0 | 0.00 | 0.00 | 0.00 | 72 | 1011.6 | |
| 20260507170046 | 62 | 0.0 | 0.0 | 0.00 | 0.00 | 0.00 | 67 | 1011.4 | |
| 20260507164543 | 62 | 0.0 | 0.0 | 0.00 | 0.00 | 0.00 | 62 | 1011.1 | |
| 20260507163044 | 62 | 0.0 | 0.0 | 0.00 | 0.00 | 0.00 | 62 | 1011.2 | |
| 20260507161543 | 63 | 0.0 | 0.0 | 0.00 | 0.00 | 0.00 | 61 | 1011.0 | |
| 20260507160042 | 63 | 0.0 | 0.0 | 0.00 | 0.00 | 0.00 | 57 | 1010.8 | |
| 20260507154542 | 64 | 0.0 | 0.0 | 0.00 | 0.00 | 0.00 | 56 | 1010.7 | |
| 20260507153049 | 65 | 0.0 | 0.0 | 0.00 | 0.00 | 0.00 | 55 | 1010.5 | |
| 20260507151541 | 65 | 0.0 | 0.0 | 0.00 | 0.00 | 0.00 | 52 | 1010.4 | |
| 20260507150040 | 66 | 0.0 | 0.0 | 0.00 | 0.00 | 0.00 | 52 | 1010.4 | |
| 20260507144545 | 67 | 0.0 | 0.0 | 0.00 | 0.00 | 0.00 | 50 | 1010.3 | |
| 20260507143041 | 67 | 0.0 | 0.0 | 0.00 | 0.00 | 0.00 | 51 | 1010.3 | |
| 20260507141538 | 68 | 0.0 | 0.0 | 0.00 | 0.00 | 0.00 | 47 | 1010.3 | |
| 20260507140057 | 70 | 0.0 | 0.0 | 0.00 | 0.00 | 0.00 | 46 | 1010.2 | |
| 20260507134536 | 71 | 0.0 | 0.0 | 0.00 | 0.00 | 0.00 | 44 | 1010.2 | |
| 20260507133036 | 67 | 0.0 | 0.0 | 0.00 | 0.00 | 0.00 | 49 | 1010.4 | |
| 20260507131538 | 69 | 0.0 | 0.0 | 0.00 | 0.00 | 0.00 | 44 | 1010.5 | |
| 20260507130041 | 68 | 0.0 | 0.0 | 0.00 | 0.00 | 0.00 | 46 | 1010.5 | |
| 20260507124531 | 66 | 0.0 | 0.0 | 0.00 | 0.00 | 0.00 | 47 | 1010.5 | |
| 20260507123038 | 66 | 0.0 | 0.0 | 0.00 | 0.00 | 0.00 | 46 | 1010.6 | |
| 20260507121539 | 67 | 0.0 | 0.0 | 0.00 | 0.00 | 0.00 | 46 | 1010.6 | |
| 20260507120028 | 66 | 0.0 | 0.0 | 0.00 | 0.00 | 0.00 | 49 | 1010.8 | |
| 20260507114525 | 65 | 0.0 | 0.0 | 0.00 | 0.00 | 0.00 | 50 | 1010.8 | |
| 20260507113033 | 64 | 0.0 | 0.0 | 0.00 | 0.00 | 0.00 | 51 | 1010.8 | |
| 20260507111526 | 65 | 0.0 | 0.0 | 0.00 | 0.00 | 0.00 | 52 | 1011.0 | |
| 20260507110027 | 64 | 0.0 | 0.0 | 0.00 | 0.00 | 0.00 | 51 | 1011.1 | |
| 20260507104520 | 64 | 0.0 | 0.0 | 0.00 | 0.00 | 0.00 | 53 | 1011.3 | |
| 20260507103019 | 63 | 0.0 | 0.0 | 0.00 | 0.00 | 0.00 | 53 | 1011.5 | |
| 20260507101527 | 63 | 0.0 | 0.0 | 0.00 | 0.00 | 0.00 | 53 | 1011.5 | |
| 20260507100026 | 62 | 0.0 | 0.0 | 0.00 | 0.00 | 0.00 | 55 | 1011.6 | |
| 20260507094521 | 63 | 0.0 | 0.0 | 0.00 | 0.00 | 0.00 | 51 | 1011.3 | |
| 20260507093032 | 63 | 0.0 | 0.0 | 0.00 | 0.00 | 0.00 | 51 | 1011.3 | |
| 20260507091513 | 63 | 0.0 | 0.0 | 0.00 | 0.00 | 0.00 | 52 | 1011.1 | |
| 20260507090016 | 62 | 0.0 | 0.0 | 0.00 | 0.00 | 0.00 | 53 | 1010.9 | |
| 20260507084509 | 62 | 0.0 | 0.0 | 0.00 | 0.00 | 0.00 | 53 | 1010.7 | |
| 20260507083013 | 62 | 0.0 | 0.0 | 0.00 | 0.00 | 0.00 | 54 | 1010.5 | |
| 20260507081506 | 62 | 0.0 | 0.0 | 0.00 | 0.00 | 0.00 | 55 | 1010.2 | |
| 20260507080005 | 61 | 0.0 | 0.0 | 0.00 | 0.00 | 0.00 | 57 | 1010.0 | |
| 20260507074508 | 61 | 0.0 | 0.0 | 0.00 | 0.00 | 0.00 | 59 | 1010.1 | |
| 20260507073002 | 60 | 0.0 | 0.0 | 0.00 | 0.00 | 0.00 | 59 | 1009.8 | |
| 20260507071613 | 59 | 0.0 | 0.0 | 0.00 | 0.00 | 0.00 | 60 | 1009.5 | |
| 20260507070101 | 58 | 0.0 | 0.0 | 0.00 | 0.00 | 0.00 | 61 | 1009.4 | |
| 20260507064559 | 58 | 0.0 | 0.0 | 0.00 | 0.00 | 0.00 | 62 | 1009.4 | |
| 20260507063100 | 58 | 0.0 | 0.0 | 0.00 | 0.00 | 0.00 | 62 | 1009.3 | |
| 20260507061556 | 58 | 0.0 | 0.0 | 0.00 | 0.00 | 0.00 | 62 | 1009.2 | |
| 20260507060054 | 58 | 0.0 | 0.0 | 0.00 | 0.00 | 0.00 | 62 | 1009.1 | |
| 20260507054604 | 58 | 0.0 | 0.0 | 0.00 | 0.00 | 0.00 | 62 | 1008.9 | |
| 20260507053055 | 58 | 0.0 | 0.0 | 0.00 | 0.00 | 0.00 | 63 | 1008.6 | |
| 20260507051551 | 58 | 0.0 | 0.0 | 0.00 | 0.00 | 0.00 | 63 | 1008.6 | |
| 20260507050049 | 57 | 0.0 | 0.0 | 0.00 | 0.00 | 0.00 | 63 | 1008.4 | |
| 20260507044546 | 57 | 0.0 | 0.0 | 0.00 | 0.00 | 0.00 | 63 | 1008.2 | |
| 20260507043045 | 57 | 0.0 | 0.0 | 0.00 | 0.00 | 0.00 | 64 | 1007.9 | |
| 20260507041543 | 57 | 0.0 | 0.0 | 0.00 | 0.00 | 0.00 | 64 | 1007.7 | |
| 20260507040056 | 57 | 0.0 | 0.0 | 0.00 | 0.00 | 0.00 | 64 | 1007.8 | |
| 20260507034552 | 57 | 0.0 | 0.0 | 0.00 | 0.00 | 0.00 | 64 | 1007.8 | |
| 20260507033043 | 58 | 0.0 | 0.0 | 0.00 | 0.00 | 0.00 | 64 | 1007.7 | |
| 20260507031539 | 58 | 0.0 | 0.0 | 0.00 | 0.00 | 0.00 | 64 | 1007.5 | |
| 20260507030038 | 58 | 0.0 | 0.0 | 0.00 | 0.00 | 0.00 | 65 | 1007.5 | |
| 20260507024537 | 58 | 0.0 | 0.0 | 0.00 | 0.00 | 0.00 | 66 | 1007.3 | |
| 20260507023035 | 58 | 0.0 | 0.0 | 0.00 | 0.00 | 0.00 | 66 | 1007.3 | |
| 20260507021533 | 59 | 0.0 | 0.0 | 0.00 | 0.00 | 0.00 | 66 | 1007.3 | |
| 20260507020034 | 59 | 0.0 | 0.0 | 0.00 | 0.00 | 0.00 | 66 | 1007.2 | |
| 20260507014531 | 59 | 0.0 | 0.0 | 0.00 | 0.00 | 0.00 | 66 | 1007.0 | |
| 20260507013036 | 59 | 0.0 | 0.0 | 0.00 | 0.00 | 0.00 | 66 | 1007.0 | |
| 20260507011537 | 59 | 0.0 | 0.0 | 0.00 | 0.00 | 0.00 | 65 | 1006.8 | |
| 20260507010029 | 60 | 0.0 | 0.0 | 0.00 | 0.00 | 0.00 | 65 | 1006.8 | |
| 20260507004525 | 60 | 0.0 | 0.0 | 0.00 | 0.00 | 0.00 | 65 | 1007.0 | |
| 20260507003023 | 60 | 0.0 | 0.0 | 0.00 | 0.00 | 0.00 | 64 | 1006.9 | |
| 20260507001522 | 61 | 0.0 | 0.0 | 0.00 | 0.00 | 0.00 | 63 | 1006.6 | |
| 20260507000020 | 61 | 0.0 | 0.0 | 0.00 | 0.00 | 0.00 | 64 | 1006.5 | |
| 20260506234525 | 61 | 0.0 | 0.0 | 0.00 | 0.00 | 0.00 | 65 | 1006.4 | |
| 20260506233019 | 61 | 0.0 | 0.0 | 0.00 | 0.00 | 0.00 | 69 | 1006.4 | |
| 20260506231517 | 61 | 0.0 | 0.0 | 0.00 | 0.00 | 0.00 | 69 | 1006.2 | |
| 20260506230014 | 62 | 0.0 | 0.0 | 0.00 | 0.00 | 0.00 | 68 | 1006.2 | |
| 20260506224520 | 62 | 0.0 | 0.0 | 0.00 | 0.00 | 0.00 | 64 | 1005.8 | |
| 20260506223009 | 62 | 0.0 | 0.0 | 0.00 | 0.00 | 0.00 | 64 | 1005.4 | |
| 20260506221507 | 62 | 0.0 | 0.0 | 0.00 | 0.00 | 0.00 | 64 | 1005.2 | |
| 20260506220004 | 63 | 0.0 | 0.0 | 0.00 | 0.00 | 0.00 | 63 | 1004.8 | |
| 20260506214502 | 63 | 0.0 | 0.0 | 0.00 | 0.00 | 0.00 | 63 | 1004.5 | |
| 20260506213001 | 64 | 0.0 | 0.0 | 0.00 | 0.00 | 0.00 | 62 | 1003.9 | |
| 20260506211501 | 64 | 0.0 | 0.0 | 0.00 | 0.00 | 0.00 | 62 | 1003.8 | |
| 20260506210121 | 64 | 0.0 | 0.0 | 0.00 | 0.00 | 0.00 | 61 | 1003.5 | |
| 20260506204600 | 65 | 0.0 | 0.0 | 0.00 | 0.00 | 0.00 | 61 | 1003.5 | |
| 20260506203143 | 65 | 0.0 | 0.0 | 0.00 | 0.00 | 0.00 | 60 | 1003.5 | |
| 20260506201559 | 65 | 0.0 | 0.0 | 0.00 | 0.00 | 0.00 | 60 | 1003.3 | |
| 20260506200059 | 66 | 0.0 | 0.0 | 0.00 | 0.00 | 0.00 | 59 | 1003.2 | |
| 20260506194558 | 66 | 0.0 | 0.0 | 0.00 | 0.00 | 0.00 | 58 | 1003.0 | |
| 20260506193058 | 66 | 0.0 | 0.0 | 0.00 | 0.00 | 0.00 | 57 | 1002.8 | |
| 20260506191604 | 67 | 0.0 | 0.0 | 0.00 | 0.00 | 0.00 | 57 | 1002.5 | |
| 20260506190058 | 67 | 0.0 | 0.0 | 0.00 | 0.00 | 0.00 | 55 | 1002.4 |